sensor_id;sensor_type;location;lat;lon;timestamp;P1;durP1;ratioP1;P2;durP2;ratioP2
25365;SDS011;13315;48.274;-1.900;2023-11-22T00:00:35;3.55;;;3.35;;
25365;SDS011;13315;48.274;-1.900;2023-11-22T00:03:01;3.40;;;3.30;;
25365;SDS011;13315;48.274;-1.900;2023-11-22T00:05:27;3.63;;;3.42;;
25365;SDS011;13315;48.274;-1.900;2023-11-22T00:07:53;3.25;;;3.10;;
25365;SDS011;13315;48.274;-1.900;2023-11-22T00:10:19;2.40;;;2.30;;
25365;SDS011;13315;48.274;-1.900;2023-11-22T00:12:45;3.38;;;2.30;;
25365;SDS011;13315;48.274;-1.900;2023-11-22T00:15:11;3.50;;;3.30;;
25365;SDS011;13315;48.274;-1.900;2023-11-22T00:17:37;2.60;;;2.50;;
25365;SDS011;13315;48.274;-1.900;2023-11-22T00:20:03;3.35;;;3.15;;
25365;SDS011;13315;48.274;-1.900;2023-11-22T00:22:33;5.20;;;4.80;;
25365;SDS011;13315;48.274;-1.900;2023-11-22T00:24:59;3.55;;;3.40;;
25365;SDS011;13315;48.274;-1.900;2023-11-22T00:27:26;3.53;;;3.33;;
25365;SDS011;13315;48.274;-1.900;2023-11-22T00:29:52;3.17;;;3.08;;
25365;SDS011;13315;48.274;-1.900;2023-11-22T00:32:18;3.00;;;2.90;;
25365;SDS011;13315;48.274;-1.900;2023-11-22T00:34:44;2.90;;;2.80;;
25365;SDS011;13315;48.274;-1.900;2023-11-22T00:37:11;5.10;;;3.20;;
25365;SDS011;13315;48.274;-1.900;2023-11-22T00:39:37;3.08;;;2.97;;
25365;SDS011;13315;48.274;-1.900;2023-11-22T00:42:03;3.15;;;3.05;;
25365;SDS011;13315;48.274;-1.900;2023-11-22T00:44:29;3.72;;;3.53;;
25365;SDS011;13315;48.274;-1.900;2023-11-22T00:46:56;3.58;;;3.40;;
25365;SDS011;13315;48.274;-1.900;2023-11-22T00:49:22;3.40;;;3.30;;
25365;SDS011;13315;48.274;-1.900;2023-11-22T00:51:49;3.53;;;3.40;;
25365;SDS011;13315;48.274;-1.900;2023-11-22T00:54:16;8.13;;;4.43;;
25365;SDS011;13315;48.274;-1.900;2023-11-22T00:56:43;3.80;;;3.53;;
25365;SDS011;13315;48.274;-1.900;2023-11-22T00:59:10;4.00;;;3.80;;
25365;SDS011;13315;48.274;-1.900;2023-11-22T01:01:36;4.55;;;4.35;;
25365;SDS011;13315;48.274;-1.900;2023-11-22T01:04:02;5.00;;;4.68;;
25365;SDS011;13315;48.274;-1.900;2023-11-22T01:06:29;3.92;;;3.63;;
25365;SDS011;13315;48.274;-1.900;2023-11-22T01:08:57;3.60;;;3.50;;
25365;SDS011;13315;48.274;-1.900;2023-11-22T01:11:23;4.40;;;4.20;;
25365;SDS011;13315;48.274;-1.900;2023-11-22T01:13:49;3.40;;;3.30;;
25365;SDS011;13315;48.274;-1.900;2023-11-22T01:16:15;8.52;;;3.40;;
25365;SDS011;13315;48.274;-1.900;2023-11-22T01:18:41;4.20;;;4.00;;
25365;SDS011;13315;48.274;-1.900;2023-11-22T01:21:08;5.78;;;4.80;;
25365;SDS011;13315;48.274;-1.900;2023-11-22T01:23:34;18.77;;;5.28;;
25365;SDS011;13315;48.274;-1.900;2023-11-22T01:26:01;3.88;;;3.67;;
25365;SDS011;13315;48.274;-1.900;2023-11-22T01:28:28;5.45;;;4.95;;
25365;SDS011;13315;48.274;-1.900;2023-11-22T01:30:59;4.43;;;4.22;;
25365;SDS011;13315;48.274;-1.900;2023-11-22T01:33:25;5.78;;;4.60;;
25365;SDS011;13315;48.274;-1.900;2023-11-22T01:35:52;3.55;;;3.45;;
25365;SDS011;13315;48.274;-1.900;2023-11-22T01:38:18;7.18;;;4.00;;
25365;SDS011;13315;48.274;-1.900;2023-11-22T01:40:45;4.20;;;4.00;;
25365;SDS011;13315;48.274;-1.900;2023-11-22T01:43:14;4.45;;;4.25;;
25365;SDS011;13315;48.274;-1.900;2023-11-22T01:45:41;5.03;;;4.72;;
25365;SDS011;13315;48.274;-1.900;2023-11-22T01:48:07;5.20;;;4.90;;
25365;SDS011;13315;48.274;-1.900;2023-11-22T01:50:36;4.45;;;4.25;;
25365;SDS011;13315;48.274;-1.900;2023-11-22T01:53:02;3.60;;;3.40;;
25365;SDS011;13315;48.274;-1.900;2023-11-22T01:55:29;3.50;;;3.40;;
25365;SDS011;13315;48.274;-1.900;2023-11-22T01:57:55;3.95;;;3.75;;
25365;SDS011;13315;48.274;-1.900;2023-11-22T02:00:22;4.00;;;3.80;;
25365;SDS011;13315;48.274;-1.900;2023-11-22T02:02:50;4.55;;;4.32;;
25365;SDS011;13315;48.274;-1.900;2023-11-22T02:05:16;3.88;;;3.67;;
25365;SDS011;13315;48.274;-1.900;2023-11-22T02:07:43;4.43;;;4.22;;
25365;SDS011;13315;48.274;-1.900;2023-11-22T02:10:09;4.93;;;4.63;;
25365;SDS011;13315;48.274;-1.900;2023-11-22T02:12:35;3.88;;;3.60;;
25365;SDS011;13315;48.274;-1.900;2023-11-22T02:15:01;3.97;;;3.72;;
25365;SDS011;13315;48.274;-1.900;2023-11-22T02:17:28;5.13;;;4.82;;
25365;SDS011;13315;48.274;-1.900;2023-11-22T02:19:54;4.80;;;4.50;;
25365;SDS011;13315;48.274;-1.900;2023-11-22T02:22:20;4.63;;;4.32;;
25365;SDS011;13315;48.274;-1.900;2023-11-22T02:24:46;4.88;;;4.68;;
25365;SDS011;13315;48.274;-1.900;2023-11-22T02:27:13;7.68;;;6.15;;
25365;SDS011;13315;48.274;-1.900;2023-11-22T02:29:39;4.40;;;4.20;;
25365;SDS011;13315;48.274;-1.900;2023-11-22T02:32:05;4.10;;;3.90;;
25365;SDS011;13315;48.274;-1.900;2023-11-22T02:34:31;6.18;;;3.83;;
25365;SDS011;13315;48.274;-1.900;2023-11-22T02:36:57;4.10;;;3.90;;
25365;SDS011;13315;48.274;-1.900;2023-11-22T02:39:29;4.25;;;4.05;;
25365;SDS011;13315;48.274;-1.900;2023-11-22T02:41:58;5.32;;;4.63;;
25365;SDS011;13315;48.274;-1.900;2023-11-22T02:44:24;4.65;;;4.45;;
25365;SDS011;13315;48.274;-1.900;2023-11-22T02:46:50;21.15;;;5.05;;
25365;SDS011;13315;48.274;-1.900;2023-11-22T02:49:16;4.57;;;4.15;;
25365;SDS011;13315;48.274;-1.900;2023-11-22T02:51:42;10.57;;;3.95;;
25365;SDS011;13315;48.274;-1.900;2023-11-22T02:54:08;3.80;;;3.70;;
25365;SDS011;13315;48.274;-1.900;2023-11-22T02:56:34;4.00;;;3.80;;
25365;SDS011;13315;48.274;-1.900;2023-11-22T02:59:00;4.22;;;3.83;;
25365;SDS011;13315;48.274;-1.900;2023-11-22T03:01:26;4.18;;;3.80;;
25365;SDS011;13315;48.274;-1.900;2023-11-22T03:03:53;3.80;;;3.60;;
25365;SDS011;13315;48.274;-1.900;2023-11-22T03:06:19;4.20;;;3.95;;
25365;SDS011;13315;48.274;-1.900;2023-11-22T03:08:45;4.63;;;3.80;;
25365;SDS011;13315;48.274;-1.900;2023-11-22T03:11:11;4.55;;;4.15;;
25365;SDS011;13315;48.274;-1.900;2023-11-22T03:13:38;4.38;;;4.07;;
25365;SDS011;13315;48.274;-1.900;2023-11-22T03:16:04;3.50;;;3.40;;
25365;SDS011;13315;48.274;-1.900;2023-11-22T03:18:30;3.78;;;3.58;;
25365;SDS011;13315;48.274;-1.900;2023-11-22T03:20:56;4.40;;;4.20;;
25365;SDS011;13315;48.274;-1.900;2023-11-22T03:23:22;3.70;;;3.60;;
25365;SDS011;13315;48.274;-1.900;2023-11-22T03:25:48;3.85;;;3.65;;
25365;SDS011;13315;48.274;-1.900;2023-11-22T03:28:14;7.03;;;4.47;;
25365;SDS011;13315;48.274;-1.900;2023-11-22T03:30:41;3.88;;;3.67;;
25365;SDS011;13315;48.274;-1.900;2023-11-22T03:33:07;4.60;;;4.30;;
25365;SDS011;13315;48.274;-1.900;2023-11-22T03:35:33;4.93;;;3.40;;
25365;SDS011;13315;48.274;-1.900;2023-11-22T03:37:59;4.60;;;4.30;;
25365;SDS011;13315;48.274;-1.900;2023-11-22T03:40:25;3.50;;;3.30;;
25365;SDS011;13315;48.274;-1.900;2023-11-22T03:42:51;5.70;;;4.90;;
25365;SDS011;13315;48.274;-1.900;2023-11-22T03:45:17;5.03;;;4.72;;
25365;SDS011;13315;48.274;-1.900;2023-11-22T03:47:44;4.60;;;4.40;;
25365;SDS011;13315;48.274;-1.900;2023-11-22T03:50:10;5.15;;;4.88;;
25365;SDS011;13315;48.274;-1.900;2023-11-22T03:52:36;5.07;;;4.78;;
25365;SDS011;13315;48.274;-1.900;2023-11-22T03:55:02;3.30;;;3.10;;
25365;SDS011;13315;48.274;-1.900;2023-11-22T03:57:28;4.60;;;4.40;;
25365;SDS011;13315;48.274;-1.900;2023-11-22T03:59:54;3.42;;;3.22;;
25365;SDS011;13315;48.274;-1.900;2023-11-22T04:02:20;3.40;;;3.30;;
25365;SDS011;13315;48.274;-1.900;2023-11-22T04:04:46;4.32;;;3.92;;
25365;SDS011;13315;48.274;-1.900;2023-11-22T04:07:13;3.50;;;3.25;;
25365;SDS011;13315;48.274;-1.900;2023-11-22T04:09:39;3.20;;;3.00;;
25365;SDS011;13315;48.274;-1.900;2023-11-22T04:12:05;3.45;;;3.25;;
25365;SDS011;13315;48.274;-1.900;2023-11-22T04:14:31;2.83;;;2.72;;
25365;SDS011;13315;48.274;-1.900;2023-11-22T04:16:57;2.90;;;2.70;;
25365;SDS011;13315;48.274;-1.900;2023-11-22T04:19:23;3.45;;;3.25;;
25365;SDS011;13315;48.274;-1.900;2023-11-22T04:21:49;2.85;;;2.75;;
25365;SDS011;13315;48.274;-1.900;2023-11-22T04:24:15;3.03;;;2.92;;
25365;SDS011;13315;48.274;-1.900;2023-11-22T04:26:42;2.65;;;2.55;;
25365;SDS011;13315;48.274;-1.900;2023-11-22T04:29:09;14.35;;;3.67;;
25365;SDS011;13315;48.274;-1.900;2023-11-22T04:31:35;2.90;;;2.80;;
25365;SDS011;13315;48.274;-1.900;2023-11-22T04:34:01;2.50;;;2.40;;
25365;SDS011;13315;48.274;-1.900;2023-11-22T04:36:27;3.20;;;2.90;;
25365;SDS011;13315;48.274;-1.900;2023-11-22T04:38:54;3.38;;;3.10;;
25365;SDS011;13315;48.274;-1.900;2023-11-22T04:41:20;3.03;;;2.92;;
25365;SDS011;13315;48.274;-1.900;2023-11-22T04:43:47;2.88;;;2.78;;
25365;SDS011;13315;48.274;-1.900;2023-11-22T04:46:14;2.80;;;2.70;;
25365;SDS011;13315;48.274;-1.900;2023-11-22T04:48:40;4.22;;;3.78;;
25365;SDS011;13315;48.274;-1.900;2023-11-22T04:51:09;2.70;;;2.60;;
25365;SDS011;13315;48.274;-1.900;2023-11-22T04:53:35;3.72;;;3.42;;
25365;SDS011;13315;48.274;-1.900;2023-11-22T04:56:02;2.72;;;2.63;;
25365;SDS011;13315;48.274;-1.900;2023-11-22T04:58:30;3.20;;;3.10;;
25365;SDS011;13315;48.274;-1.900;2023-11-22T05:00:57;3.22;;;3.13;;
25365;SDS011;13315;48.274;-1.900;2023-11-22T05:03:23;2.70;;;2.60;;
25365;SDS011;13315;48.274;-1.900;2023-11-22T05:05:49;3.40;;;3.25;;
25365;SDS011;13315;48.274;-1.900;2023-11-22T05:08:16;2.60;;;2.50;;
25365;SDS011;13315;48.274;-1.900;2023-11-22T05:10:42;2.85;;;2.75;;
25365;SDS011;13315;48.274;-1.900;2023-11-22T05:13:08;3.10;;;2.90;;
25365;SDS011;13315;48.274;-1.900;2023-11-22T05:15:34;2.50;;;2.40;;
25365;SDS011;13315;48.274;-1.900;2023-11-22T05:18:00;2.60;;;2.50;;
25365;SDS011;13315;48.274;-1.900;2023-11-22T05:20:26;2.42;;;2.33;;
25365;SDS011;13315;48.274;-1.900;2023-11-22T05:22:52;2.38;;;2.28;;
25365;SDS011;13315;48.274;-1.900;2023-11-22T05:25:19;9.68;;;2.67;;
25365;SDS011;13315;48.274;-1.900;2023-11-22T05:27:45;2.50;;;2.40;;
25365;SDS011;13315;48.274;-1.900;2023-11-22T05:30:11;2.70;;;2.50;;
25365;SDS011;13315;48.274;-1.900;2023-11-22T05:32:37;2.97;;;2.63;;
25365;SDS011;13315;48.274;-1.900;2023-11-22T05:35:03;2.58;;;2.38;;
25365;SDS011;13315;48.274;-1.900;2023-11-22T05:37:34;2.90;;;2.70;;
25365;SDS011;13315;48.274;-1.900;2023-11-22T05:40:01;2.20;;;2.10;;
25365;SDS011;13315;48.274;-1.900;2023-11-22T05:42:28;2.50;;;2.40;;
25365;SDS011;13315;48.274;-1.900;2023-11-22T05:44:54;3.90;;;2.40;;
25365;SDS011;13315;48.274;-1.900;2023-11-22T05:47:20;3.83;;;3.05;;
25365;SDS011;13315;48.274;-1.900;2023-11-22T05:49:47;2.20;;;2.10;;
25365;SDS011;13315;48.274;-1.900;2023-11-22T05:52:13;2.63;;;2.53;;
25365;SDS011;13315;48.274;-1.900;2023-11-22T05:54:39;2.67;;;2.47;;
25365;SDS011;13315;48.274;-1.900;2023-11-22T05:57:05;2.95;;;2.75;;
25365;SDS011;13315;48.274;-1.900;2023-11-22T05:59:31;2.28;;;2.17;;
25365;SDS011;13315;48.274;-1.900;2023-11-22T06:01:57;3.05;;;2.85;;
25365;SDS011;13315;48.274;-1.900;2023-11-22T06:04:23;3.15;;;3.03;;
25365;SDS011;13315;48.274;-1.900;2023-11-22T06:06:49;2.75;;;2.65;;
25365;SDS011;13315;48.274;-1.900;2023-11-22T06:09:16;16.33;;;2.95;;
25365;SDS011;13315;48.274;-1.900;2023-11-22T06:11:42;2.72;;;2.63;;
25365;SDS011;13315;48.274;-1.900;2023-11-22T06:14:08;2.92;;;2.72;;
25365;SDS011;13315;48.274;-1.900;2023-11-22T06:16:34;2.45;;;2.35;;
25365;SDS011;13315;48.274;-1.900;2023-11-22T06:19:00;2.38;;;2.28;;
25365;SDS011;13315;48.274;-1.900;2023-11-22T06:21:26;2.10;;;2.00;;
25365;SDS011;13315;48.274;-1.900;2023-11-22T06:23:53;2.20;;;2.10;;
25365;SDS011;13315;48.274;-1.900;2023-11-22T06:26:22;1.90;;;1.80;;
25365;SDS011;13315;48.274;-1.900;2023-11-22T06:28:49;2.20;;;2.10;;
25365;SDS011;13315;48.274;-1.900;2023-11-22T06:31:15;1.70;;;1.70;;
25365;SDS011;13315;48.274;-1.900;2023-11-22T06:33:41;1.80;;;1.70;;
25365;SDS011;13315;48.274;-1.900;2023-11-22T06:36:07;2.30;;;2.20;;
25365;SDS011;13315;48.274;-1.900;2023-11-22T06:38:36;3.97;;;2.03;;
25365;SDS011;13315;48.274;-1.900;2023-11-22T06:41:02;2.95;;;2.65;;
25365;SDS011;13315;48.274;-1.900;2023-11-22T06:43:28;1.90;;;1.80;;
25365;SDS011;13315;48.274;-1.900;2023-11-22T06:45:54;1.80;;;1.80;;
25365;SDS011;13315;48.274;-1.900;2023-11-22T06:48:20;1.90;;;1.80;;
25365;SDS011;13315;48.274;-1.900;2023-11-22T06:50:47;1.70;;;1.60;;
25365;SDS011;13315;48.274;-1.900;2023-11-22T06:53:13;2.10;;;2.00;;
25365;SDS011;13315;48.274;-1.900;2023-11-22T06:55:40;28.95;;;3.17;;
25365;SDS011;13315;48.274;-1.900;2023-11-22T06:58:06;1.75;;;1.75;;
25365;SDS011;13315;48.274;-1.900;2023-11-22T07:00:33;2.15;;;2.08;;
25365;SDS011;13315;48.274;-1.900;2023-11-22T07:02:59;2.30;;;2.20;;
25365;SDS011;13315;48.274;-1.900;2023-11-22T07:05:26;2.25;;;2.15;;
25365;SDS011;13315;48.274;-1.900;2023-11-22T07:07:55;2.40;;;2.30;;
25365;SDS011;13315;48.274;-1.900;2023-11-22T07:10:21;1.80;;;1.75;;
25365;SDS011;13315;48.274;-1.900;2023-11-22T07:12:47;1.92;;;1.90;;
25365;SDS011;13315;48.274;-1.900;2023-11-22T07:15:13;3.13;;;2.20;;
25365;SDS011;13315;48.274;-1.900;2023-11-22T07:17:39;2.30;;;2.20;;
25365;SDS011;13315;48.274;-1.900;2023-11-22T07:20:07;2.10;;;2.00;;
25365;SDS011;13315;48.274;-1.900;2023-11-22T07:22:35;2.35;;;2.25;;
25365;SDS011;13315;48.274;-1.900;2023-11-22T07:25:01;2.20;;;2.10;;
25365;SDS011;13315;48.274;-1.900;2023-11-22T07:27:27;2.25;;;2.10;;
25365;SDS011;13315;48.274;-1.900;2023-11-22T07:29:54;2.40;;;2.30;;
25365;SDS011;13315;48.274;-1.900;2023-11-22T07:32:20;2.53;;;2.33;;
25365;SDS011;13315;48.274;-1.900;2023-11-22T07:34:46;2.70;;;2.60;;
25365;SDS011;13315;48.274;-1.900;2023-11-22T07:37:12;6.28;;;2.10;;
25365;SDS011;13315;48.274;-1.900;2023-11-22T07:39:40;2.55;;;2.35;;
25365;SDS011;13315;48.274;-1.900;2023-11-22T07:42:08;2.17;;;2.08;;
25365;SDS011;13315;48.274;-1.900;2023-11-22T07:44:34;2.30;;;2.10;;
25365;SDS011;13315;48.274;-1.900;2023-11-22T07:47:02;5.20;;;2.72;;
25365;SDS011;13315;48.274;-1.900;2023-11-22T07:49:33;3.45;;;3.25;;
25365;SDS011;13315;48.274;-1.900;2023-11-22T07:52:03;2.42;;;2.33;;
25365;SDS011;13315;48.274;-1.900;2023-11-22T07:54:31;1.90;;;1.90;;
25365;SDS011;13315;48.274;-1.900;2023-11-22T07:56:58;2.03;;;2.00;;
25365;SDS011;13315;48.274;-1.900;2023-11-22T07:59:24;1.90;;;1.80;;
25365;SDS011;13315;48.274;-1.900;2023-11-22T08:01:51;1.98;;;1.90;;
25365;SDS011;13315;48.274;-1.900;2023-11-22T08:04:18;2.08;;;2.00;;
25365;SDS011;13315;48.274;-1.900;2023-11-22T08:06:44;2.40;;;2.20;;
25365;SDS011;13315;48.274;-1.900;2023-11-22T08:09:11;2.42;;;2.33;;
25365;SDS011;13315;48.274;-1.900;2023-11-22T08:11:37;2.20;;;2.10;;
25365;SDS011;13315;48.274;-1.900;2023-11-22T08:14:03;2.40;;;2.30;;
25365;SDS011;13315;48.274;-1.900;2023-11-22T08:16:30;3.72;;;2.65;;
25365;SDS011;13315;48.274;-1.900;2023-11-22T08:18:57;2.10;;;2.00;;
25365;SDS011;13315;48.274;-1.900;2023-11-22T08:21:23;2.05;;;1.95;;
25365;SDS011;13315;48.274;-1.900;2023-11-22T08:23:49;2.00;;;1.90;;
25365;SDS011;13315;48.274;-1.900;2023-11-22T08:26:17;2.17;;;2.03;;
25365;SDS011;13315;48.274;-1.900;2023-11-22T08:28:43;2.30;;;2.20;;
25365;SDS011;13315;48.274;-1.900;2023-11-22T08:31:09;2.53;;;2.38;;
25365;SDS011;13315;48.274;-1.900;2023-11-22T08:33:36;2.50;;;2.40;;
25365;SDS011;13315;48.274;-1.900;2023-11-22T08:36:02;2.10;;;2.00;;
25365;SDS011;13315;48.274;-1.900;2023-11-22T08:38:29;1.80;;;1.80;;
25365;SDS011;13315;48.274;-1.900;2023-11-22T08:41:05;2.22;;;2.13;;
25365;SDS011;13315;48.274;-1.900;2023-11-22T08:43:31;2.63;;;2.53;;
25365;SDS011;13315;48.274;-1.900;2023-11-22T08:45:57;2.72;;;2.33;;
25365;SDS011;13315;48.274;-1.900;2023-11-22T08:48:24;2.50;;;2.05;;
25365;SDS011;13315;48.274;-1.900;2023-11-22T08:50:50;14.32;;;3.20;;
25365;SDS011;13315;48.274;-1.900;2023-11-22T08:53:18;3.72;;;3.47;;
25365;SDS011;13315;48.274;-1.900;2023-11-22T08:55:44;2.58;;;2.47;;
25365;SDS011;13315;48.274;-1.900;2023-11-22T08:58:11;2.50;;;2.40;;
25365;SDS011;13315;48.274;-1.900;2023-11-22T09:00:37;3.05;;;2.85;;
25365;SDS011;13315;48.274;-1.900;2023-11-22T09:03:03;3.15;;;2.80;;
25365;SDS011;13315;48.274;-1.900;2023-11-22T09:05:29;3.20;;;2.90;;
25365;SDS011;13315;48.274;-1.900;2023-11-22T09:07:55;2.83;;;2.72;;
25365;SDS011;13315;48.274;-1.900;2023-11-22T09:10:24;3.67;;;3.38;;
25365;SDS011;13315;48.274;-1.900;2023-11-22T09:12:51;8.87;;;2.90;;
25365;SDS011;13315;48.274;-1.900;2023-11-22T09:15:18;3.33;;;2.90;;
25365;SDS011;13315;48.274;-1.900;2023-11-22T09:17:51;3.05;;;2.88;;
25365;SDS011;13315;48.274;-1.900;2023-11-22T09:20:19;3.00;;;2.90;;
25365;SDS011;13315;48.274;-1.900;2023-11-22T09:22:46;3.03;;;2.88;;
25365;SDS011;13315;48.274;-1.900;2023-11-22T09:25:16;2.60;;;2.42;;
25365;SDS011;13315;48.274;-1.900;2023-11-22T09:27:45;2.70;;;2.60;;
25365;SDS011;13315;48.274;-1.900;2023-11-22T09:30:13;3.08;;;2.88;;
25365;SDS011;13315;48.274;-1.900;2023-11-22T09:33:07;10.35;;;2.83;;
25365;SDS011;13315;48.274;-1.900;2023-11-22T09:35:34;4.00;;;3.70;;
25365;SDS011;13315;48.274;-1.900;2023-11-22T09:38:01;2.40;;;2.30;;
25365;SDS011;13315;48.274;-1.900;2023-11-22T09:40:28;3.70;;;3.47;;
25365;SDS011;13315;48.274;-1.900;2023-11-22T09:42:55;2.90;;;2.70;;
25365;SDS011;13315;48.274;-1.900;2023-11-22T09:45:22;2.35;;;2.25;;
25365;SDS011;13315;48.274;-1.900;2023-11-22T09:47:50;5.43;;;2.92;;
25365;SDS011;13315;48.274;-1.900;2023-11-22T09:50:20;2.70;;;2.60;;
25365;SDS011;13315;48.274;-1.900;2023-11-22T09:52:50;5.30;;;3.45;;
25365;SDS011;13315;48.274;-1.900;2023-11-22T09:55:19;2.88;;;2.67;;
25365;SDS011;13315;48.274;-1.900;2023-11-22T09:57:45;3.83;;;3.20;;
25365;SDS011;13315;48.274;-1.900;2023-11-22T10:00:12;4.13;;;3.38;;
25365;SDS011;13315;48.274;-1.900;2023-11-22T10:02:39;12.50;;;3.15;;
25365;SDS011;13315;48.274;-1.900;2023-11-22T10:05:06;3.75;;;3.45;;
25365;SDS011;13315;48.274;-1.900;2023-11-22T10:07:34;2.92;;;2.67;;
25365;SDS011;13315;48.274;-1.900;2023-11-22T10:10:03;2.45;;;2.30;;
25365;SDS011;13315;48.274;-1.900;2023-11-22T10:12:30;3.38;;;3.08;;
25365;SDS011;13315;48.274;-1.900;2023-11-22T10:15:30;2.08;;;1.98;;
25365;SDS011;13315;48.274;-1.900;2023-11-22T10:17:55;3.92;;;2.70;;
25365;SDS011;13315;48.274;-1.900;2023-11-22T10:20:25;2.53;;;2.42;;
25365;SDS011;13315;48.274;-1.900;2023-11-22T10:23:00;2.95;;;2.85;;
25365;SDS011;13315;48.274;-1.900;2023-11-22T10:25:27;3.42;;;3.10;;
25365;SDS011;13315;48.274;-1.900;2023-11-22T10:27:54;2.40;;;2.30;;
25365;SDS011;13315;48.274;-1.900;2023-11-22T10:30:20;2.40;;;2.30;;
25365;SDS011;13315;48.274;-1.900;2023-11-22T10:32:46;2.45;;;2.28;;
25365;SDS011;13315;48.274;-1.900;2023-11-22T10:35:13;2.60;;;2.40;;
25365;SDS011;13315;48.274;-1.900;2023-11-22T10:37:42;2.50;;;2.40;;
25365;SDS011;13315;48.274;-1.900;2023-11-22T10:40:10;2.22;;;2.13;;
25365;SDS011;13315;48.274;-1.900;2023-11-22T10:42:38;2.60;;;2.50;;
25365;SDS011;13315;48.274;-1.900;2023-11-22T10:45:07;2.92;;;2.83;;
25365;SDS011;13315;48.274;-1.900;2023-11-22T10:47:37;2.20;;;2.10;;
25365;SDS011;13315;48.274;-1.900;2023-11-22T10:50:04;16.95;;;2.90;;
25365;SDS011;13315;48.274;-1.900;2023-11-22T10:52:32;2.25;;;2.13;;
25365;SDS011;13315;48.274;-1.900;2023-11-22T10:55:01;5.22;;;3.80;;
25365;SDS011;13315;48.274;-1.900;2023-11-22T10:57:29;1.92;;;1.92;;
25365;SDS011;13315;48.274;-1.900;2023-11-22T10:59:57;2.88;;;2.70;;
25365;SDS011;13315;48.274;-1.900;2023-11-22T11:02:26;3.15;;;2.90;;
25365;SDS011;13315;48.274;-1.900;2023-11-22T11:04:55;2.53;;;2.43;;
25365;SDS011;13315;48.274;-1.900;2023-11-22T11:07:27;2.20;;;2.10;;
25365;SDS011;13315;48.274;-1.900;2023-11-22T11:09:56;5.25;;;2.80;;
25365;SDS011;13315;48.274;-1.900;2023-11-22T11:12:23;4.75;;;2.35;;
25365;SDS011;13315;48.274;-1.900;2023-11-22T11:14:49;2.55;;;2.42;;
25365;SDS011;13315;48.274;-1.900;2023-11-22T11:17:16;2.95;;;2.20;;
25365;SDS011;13315;48.274;-1.900;2023-11-22T11:19:42;2.60;;;2.50;;
25365;SDS011;13315;48.274;-1.900;2023-11-22T11:22:09;2.42;;;2.33;;
25365;SDS011;13315;48.274;-1.900;2023-11-22T11:24:39;2.70;;;2.60;;
25365;SDS011;13315;48.274;-1.900;2023-11-22T11:27:09;2.50;;;2.40;;
25365;SDS011;13315;48.274;-1.900;2023-11-22T11:29:36;7.15;;;2.90;;
25365;SDS011;13315;48.274;-1.900;2023-11-22T11:32:50;2.25;;;2.15;;
25365;SDS011;13315;48.274;-1.900;2023-11-22T11:35:04;2.25;;;2.05;;
25365;SDS011;13315;48.274;-1.900;2023-11-22T11:37:33;2.40;;;2.30;;
25365;SDS011;13315;48.274;-1.900;2023-11-22T11:39:59;2.80;;;2.50;;
25365;SDS011;13315;48.274;-1.900;2023-11-22T11:42:25;2.30;;;2.20;;
25365;SDS011;13315;48.274;-1.900;2023-11-22T11:45:04;4.22;;;3.08;;
25365;SDS011;13315;48.274;-1.900;2023-11-22T11:47:32;2.30;;;2.20;;
25365;SDS011;13315;48.274;-1.900;2023-11-22T11:49:58;2.00;;;1.90;;
25365;SDS011;13315;48.274;-1.900;2023-11-22T11:52:25;2.30;;;2.20;;
25365;SDS011;13315;48.274;-1.900;2023-11-22T11:54:51;2.00;;;1.90;;
25365;SDS011;13315;48.274;-1.900;2023-11-22T11:57:18;1.75;;;1.75;;
25365;SDS011;13315;48.274;-1.900;2023-11-22T11:59:44;1.60;;;1.60;;
25365;SDS011;13315;48.274;-1.900;2023-11-22T12:02:11;2.40;;;2.20;;
25365;SDS011;13315;48.274;-1.900;2023-11-22T12:04:37;2.30;;;2.20;;
25365;SDS011;13315;48.274;-1.900;2023-11-22T12:07:07;1.90;;;1.80;;
25365;SDS011;13315;48.274;-1.900;2023-11-22T12:09:33;2.10;;;2.00;;
25365;SDS011;13315;48.274;-1.900;2023-11-22T12:12:00;3.15;;;1.90;;
25365;SDS011;13315;48.274;-1.900;2023-11-22T12:14:28;1.90;;;1.90;;
25365;SDS011;13315;48.274;-1.900;2023-11-22T12:16:54;2.13;;;2.03;;
25365;SDS011;13315;48.274;-1.900;2023-11-22T12:19:24;1.90;;;1.90;;
25365;SDS011;13315;48.274;-1.900;2023-11-22T12:21:52;1.88;;;1.77;;
25365;SDS011;13315;48.274;-1.900;2023-11-22T12:24:18;3.63;;;2.40;;
25365;SDS011;13315;48.274;-1.900;2023-11-22T12:26:46;1.83;;;1.80;;
25365;SDS011;13315;48.274;-1.900;2023-11-22T12:29:15;1.92;;;1.83;;
25365;SDS011;13315;48.274;-1.900;2023-11-22T12:31:50;2.22;;;2.13;;
25365;SDS011;13315;48.274;-1.900;2023-11-22T12:34:18;1.60;;;1.60;;
25365;SDS011;13315;48.274;-1.900;2023-11-22T12:36:45;1.70;;;1.60;;
25365;SDS011;13315;48.274;-1.900;2023-11-22T12:39:15;2.20;;;2.10;;
25365;SDS011;13315;48.274;-1.900;2023-11-22T12:41:49;3.05;;;1.90;;
25365;SDS011;13315;48.274;-1.900;2023-11-22T12:44:18;1.90;;;1.80;;
25365;SDS011;13315;48.274;-1.900;2023-11-22T12:46:53;2.10;;;2.00;;
25365;SDS011;13315;48.274;-1.900;2023-11-22T12:49:24;5.85;;;1.80;;
25365;SDS011;13315;48.274;-1.900;2023-11-22T12:51:51;2.45;;;2.00;;
25365;SDS011;13315;48.274;-1.900;2023-11-22T12:54:18;1.73;;;1.73;;
25365;SDS011;13315;48.274;-1.900;2023-11-22T12:56:55;1.73;;;1.67;;
25365;SDS011;13315;48.274;-1.900;2023-11-22T12:59:24;2.00;;;1.92;;
25365;SDS011;13315;48.274;-1.900;2023-11-22T13:04:19;6.40;;;2.00;;
25365;SDS011;13315;48.274;-1.900;2023-11-22T13:06:45;1.50;;;1.50;;
25365;SDS011;13315;48.274;-1.900;2023-11-22T13:09:11;1.60;;;1.60;;
25365;SDS011;13315;48.274;-1.900;2023-11-22T13:11:41;2.60;;;2.45;;
25365;SDS011;13315;48.274;-1.900;2023-11-22T13:14:08;2.67;;;2.58;;
25365;SDS011;13315;48.274;-1.900;2023-11-22T13:16:35;1.95;;;1.80;;
25365;SDS011;13315;48.274;-1.900;2023-11-22T13:19:03;2.17;;;2.08;;
25365;SDS011;13315;48.274;-1.900;2023-11-22T13:21:29;1.90;;;1.80;;
25365;SDS011;13315;48.274;-1.900;2023-11-22T13:23:56;1.70;;;1.70;;
25365;SDS011;13315;48.274;-1.900;2023-11-22T13:26:24;1.60;;;1.60;;
25365;SDS011;13315;48.274;-1.900;2023-11-22T13:28:50;1.42;;;1.42;;
25365;SDS011;13315;48.274;-1.900;2023-11-22T13:31:19;2.30;;;2.10;;
25365;SDS011;13315;48.274;-1.900;2023-11-22T13:33:46;1.70;;;1.70;;
25365;SDS011;13315;48.274;-1.900;2023-11-22T13:36:12;1.70;;;1.70;;
25365;SDS011;13315;48.274;-1.900;2023-11-22T13:38:39;2.20;;;2.10;;
25365;SDS011;13315;48.274;-1.900;2023-11-22T13:41:06;1.80;;;1.80;;
25365;SDS011;13315;48.274;-1.900;2023-11-22T13:43:33;2.67;;;2.58;;
25365;SDS011;13315;48.274;-1.900;2023-11-22T13:46:00;2.30;;;2.20;;
25365;SDS011;13315;48.274;-1.900;2023-11-22T13:48:26;4.30;;;2.00;;
25365;SDS011;13315;48.274;-1.900;2023-11-22T13:50:52;4.93;;;2.35;;
25365;SDS011;13315;48.274;-1.900;2023-11-22T13:53:18;2.28;;;2.08;;
25365;SDS011;13315;48.274;-1.900;2023-11-22T13:55:47;1.67;;;1.67;;
25365;SDS011;13315;48.274;-1.900;2023-11-22T13:58:15;2.05;;;1.98;;
25365;SDS011;13315;48.274;-1.900;2023-11-22T14:00:41;1.95;;;1.85;;
25365;SDS011;13315;48.274;-1.900;2023-11-22T14:03:08;2.00;;;1.90;;
25365;SDS011;13315;48.274;-1.900;2023-11-22T14:05:36;2.78;;;2.58;;
25365;SDS011;13315;48.274;-1.900;2023-11-22T14:08:04;3.70;;;2.03;;
25365;SDS011;13315;48.274;-1.900;2023-11-22T14:10:31;1.75;;;1.70;;
25365;SDS011;13315;48.274;-1.900;2023-11-22T14:12:58;1.45;;;1.45;;
25365;SDS011;13315;48.274;-1.900;2023-11-22T14:15:25;2.28;;;1.83;;
25365;SDS011;13315;48.274;-1.900;2023-11-22T14:17:53;1.60;;;1.60;;
25365;SDS011;13315;48.274;-1.900;2023-11-22T14:20:20;3.15;;;1.80;;
25365;SDS011;13315;48.274;-1.900;2023-11-22T14:22:46;1.60;;;1.60;;
25365;SDS011;13315;48.274;-1.900;2023-11-22T14:25:13;1.70;;;1.70;;
25365;SDS011;13315;48.274;-1.900;2023-11-22T14:27:44;4.53;;;1.85;;
25365;SDS011;13315;48.274;-1.900;2023-11-22T14:30:11;4.00;;;2.03;;
25365;SDS011;13315;48.274;-1.900;2023-11-22T14:32:42;2.00;;;1.90;;
25365;SDS011;13315;48.274;-1.900;2023-11-22T14:35:08;1.95;;;1.92;;